Currently 51°F in Perris, California, USA
51°F
52°F / 44°F
1 mph SW
0.11"
Sunday, February 26, 2017 3:31 PM PST

Perris, California Weather Summary
Last 36 Hours

Temperature Winds Hourly Humidity Dewpoint
Time Report Norm Report Norm Max Gusts Precip. Rpt. Norm Rpt. Norm Pressure
1Sun 03:31 PM  51.3°F  65°F  1 mph SW  5 mph  4 mph  0.01"  94%  40%  50°F  40°F  29.95"
Sun 03:00 PM  51.1°F  66°F  5 mph S  5 mph  9 mph  0.01"  90%  40%  48°F  40°F  29.96"
2Sun 02:02 PM  52.0°F  66°F  2 mph SE  4 mph  9 mph  ----  83%  39%  47°F  39°F  29.96"
Sun 02:00 PM  52.0°F  66°F  5 mph SE  4 mph  10 mph  0.00"  85%  39%  48°F  40°F  29.96"
Sun 01:00 PM  50.9°F  65°F  5 mph S  4 mph  9 mph  0.00"  83%  40%  46°F  39°F  29.99"
Sun 12:00 PM  50.7°F  64°F  5 mph S  3 mph  9 mph  0.00"  84%  44%  46°F  41°F  30.01"
Sun 11:00 AM  48.4°F  61°F  5 mph S  3 mph  10 mph  0.00"  90%  50%  45°F  42°F  30.03"
Sun 10:00 AM  47.1°F  58°F  4 mph S  3 mph  9 mph  0.00"  95%  60%  46°F  44°F  30.03"
Sun 09:00 AM  45.4°F  53°F  3 mph S  2 mph  7 mph  0.00"  98%  72%  45°F  44°F  30.04"
Sun 08:00 AM  44.1°F  48°F  2 mph SE  2 mph  5 mph  0.01"  99%  82%  44°F  43°F  30.04"
Sun 07:00 AM  43.8°F  45°F  1 mph SE  1 mph  5 mph  0.02"  98%  83%  43°F  41°F  30.03"
3Sun 06:30 AM  43.7°F  45°F  calm  1 mph  4 mph  ----  98%  83%  43°F  40°F  30.03"
Sun 06:00 AM  44.3°F  45°F  1 mph E  1 mph  12 mph  0.04"  98%  84%  44°F  40°F  30.02"
Sun 05:00 AM  45.2°F  46°F  8 mph NW  1 mph  13 mph  0.02"  97%  83%  44°F  41°F  30.02"
Sun 04:00 AM  45.5°F  47°F  3 mph S  1 mph  10 mph  0.00"  96%  82%  44°F  41°F  29.99"
Sun 03:00 AM  45.7°F  47°F  5 mph S  1 mph  10 mph  0.00"  97%  81%  45°F  41°F  30.00"
Sun 02:00 AM  46.0°F  48°F  6 mph S  1 mph  10 mph  0.00"  96%  79%  45°F  42°F  30.01"
Sun 01:00 AM  45.8°F  49°F  4 mph S  1 mph  9 mph  0.00"  96%  78%  45°F  42°F  30.02"
Sun 12:00 AM  45.4°F  50°F  4 mph SE  1 mph  8 mph  0.00"  95%  75%  44°F  43°F  30.01"
Sat 11:00 PM  46.1°F  51°F  4 mph SE  2 mph  7 mph  0.00"  91%  73%  44°F  42°F  30.03"
Sat 10:00 PM  46.6°F  53°F  4 mph SE  2 mph  9 mph  0.00"  90%  69%  44°F  42°F  30.03"
Sat 09:00 PM  48.4°F  54°F  5 mph S  2 mph  12 mph  0.00"  84%  66%  43°F  42°F  30.04"
Sat 08:00 PM  50.0°F  55°F  5 mph S  2 mph  7 mph  0.00"  72%  63%  41°F  42°F  30.02"
Sat 07:00 PM  50.5°F  57°F  4 mph S  3 mph  12 mph  0.00"  69%  58%  40°F  42°F  30.02"
Sat 06:00 PM  53.7°F  59°F  calm  4 mph  9 mph  0.00"  75%  53%  46°F  41°F  30.01"
Sat 05:00 PM  55.1°F  63°F  3 mph W  4 mph  13 mph  0.00"  68%  46%  44°F  41°F  30.00"
Sat 04:00 PM  58.3°F  65°F  5 mph W  4 mph  14 mph  0.00"  57%  42%  43°F  40°F  30.01"
Sat 03:00 PM  64.3°F  66°F  calm  5 mph  9 mph  0.00"  44%  40%  41°F  40°F  30.01"
Sat 02:00 PM  63.3°F  66°F  5 mph S  4 mph  8 mph  0.00"  45%  40%  41°F  40°F  30.04"
Sat 01:00 PM  59.4°F  65°F  4 mph W  4 mph  10 mph  0.00"  47%  40%  38°F  39°F  30.06"
Sat 12:00 PM  59.5°F  63°F  1 mph SW  3 mph  8 mph  0.00"  50%  45%  40°F  41°F  30.09"
Sat 11:00 AM  55.8°F  61°F  1 mph SW  3 mph  7 mph  0.00"  63%  51%  43°F  42°F  30.13"
Sat 10:00 AM  53.3°F  58°F  2 mph SE  3 mph  7 mph  0.00"  70%  61%  43°F  44°F  30.15"
Sat 09:00 AM  47.6°F  53°F  5 mph S  2 mph  6 mph  0.00"  79%  74%  41°F  44°F  30.16"
Sat 08:00 AM  40.3°F  48°F  calm  2 mph  none  0.00"  96%  82%  39°F  43°F  30.17"
Sat 07:00 AM  35.8°F  45°F  calm  1 mph  4 mph  0.00"  96%  84%  35°F  40°F  30.16"
Sat 06:00 AM  36.7°F  45°F  calm  1 mph  5 mph  0.00"  96%  84%  36°F  40°F  30.15"
Sat 05:00 AM  35.9°F  45°F  4 mph SE  1 mph  8 mph  0.00"  98%  84%  35°F  41°F  30.15"
Sat 04:00 AM  37.0°F  46°F  4 mph SE  1 mph  4 mph  0.00"  95%  82%  36°F  41°F  30.15"

  1. Current weather data. No green row appears if the current weather data is also the high or low for the current day.
  2. High temperature for the current day.
  3. Low temperature for the current day.

The Perris, California weather pages are a service of WeatherCurrents. Perris is located in Southern California's Inland Empire, south of Riverside and north of Sun City, along the Interstate 215 freeway.
Copyright ©Sun Feb 26 15:32:00 PST 2017  WeatherCurrents. All rights reserved. - Submit questions and comments - Privacy Policy

This page automatically refreshes every 10 minutes.